Portland, Oregon
Traffic Map
Current Weather Conditions
Portland, Oregon
Broken Clouds
Broken Clouds

Feels Like: 7°
Wind Chill: Ceiling: 7000
Heat Index: Visibility: 10mi
Dew Point: Wind: 5mph
Humidity: 93% Direction: 180° (S)
Pressure: 30.15in Gusts: 0mph
Raw Report DataKPDX 241453Z 18004KT 10SM FEW020 SCT048 BKN070 08/07 A3015 RMK AO2 SLP210 T00830072 53007
Traffic Incident Summary
Active as of:
Severity:
Category:
InformationThere was an issue retrieving the traffic information for this location. Please try a different location or try again shortly.
Advertisements